WZZ93L UKCC-UGKO
Flight info
| Callsign | WZZ93L |
|---|---|
| Flight time | N/A |
| Altitude | 37000 |
| Route | DCT RAVID/N0431F370 DCT IBERI DCT |
| Aircraft | A20N/M-SDE2E3FGHIRWXY/LB1 |
Departure
| Time | N/A |
|---|---|
| Airport | UKCC |
Arrival
| Time | 2026-04-17 20:47 |
|---|---|
| Airport | David the Builder Kutaisi International Airport (UGKO) |
| Time | Latitude | Longitude | Altitude | Speed | Heading |
|---|---|---|---|---|---|
| 2026-04-17 19:24 | 48.06973 | 37.74125 | 777 ft | 0 kts | 180° |
| 2026-04-17 19:29 | 48.06979 | 37.74125 | 777 ft | 0 kts | 178° |
| 2026-04-17 19:30 | 48.06986 | 37.74124 | 777 ft | 2 kts | 178° |
| 2026-04-17 19:30 | 48.07003 | 37.74123 | 777 ft | 2 kts | 174° |
| 2026-04-17 19:30 | 48.07019 | 37.74119 | 777 ft | 2 kts | 168° |
| 2026-04-17 19:30 | 48.07035 | 37.74112 | 777 ft | 2 kts | 152° |
| 2026-04-17 19:31 | 48.07047 | 37.74095 | 777 ft | 2 kts | 114° |
| 2026-04-17 19:31 | 48.07049 | 37.74079 | 776 ft | 1 kts | 92° |
| 2026-04-17 19:31 | 48.07049 | 37.74077 | 776 ft | 0 kts | 92° |
| 2026-04-17 19:34 | 48.07049 | 37.74081 | 776 ft | 2 kts | 92° |
| 2026-04-17 19:34 | 48.07048 | 37.74119 | 776 ft | 7 kts | 93° |
| 2026-04-17 19:34 | 48.07047 | 37.74224 | 779 ft | 13 kts | 90° |
| 2026-04-17 19:35 | 48.07064 | 37.74342 | 781 ft | 8 kts | 35° |
| 2026-04-17 19:35 | 48.07134 | 37.74359 | 781 ft | 13 kts | 0° |
| 2026-04-17 19:35 | 48.07252 | 37.74360 | 781 ft | 21 kts | 0° |
| 2026-04-17 19:35 | 48.07310 | 37.74383 | 781 ft | 4 kts | 62° |
| 2026-04-17 19:36 | 48.07319 | 37.74439 | 782 ft | 8 kts | 82° |
| 2026-04-17 19:36 | 48.07323 | 37.74547 | 784 ft | 13 kts | 90° |
| 2026-04-17 19:36 | 48.07322 | 37.74707 | 787 ft | 18 kts | 90° |
| 2026-04-17 19:36 | 48.07321 | 37.74841 | 789 ft | 21 kts | 90° |
| 2026-04-17 19:37 | 48.07321 | 37.74889 | 790 ft | 21 kts | 91° |
| 2026-04-17 19:37 | 48.07319 | 37.75079 | 793 ft | 15 kts | 91° |
| 2026-04-17 19:37 | 48.07318 | 37.75189 | 795 ft | 7 kts | 91° |
| 2026-04-17 19:38 | 48.07317 | 37.75220 | 796 ft | 0 kts | 91° |
| 2026-04-17 19:39 | 48.07319 | 37.75223 | 796 ft | 1 kts | 67° |
| 2026-04-17 19:39 | 48.07325 | 37.75225 | 796 ft | 1 kts | 3° |
| 2026-04-17 19:39 | 48.07396 | 37.75221 | 796 ft | 18 kts | 358° |
| 2026-04-17 19:39 | 48.07509 | 37.75178 | 797 ft | 25 kts | 305° |
| 2026-04-17 19:40 | 48.07530 | 37.74830 | 788 ft | 58 kts | 270° |
| 2026-04-17 19:40 | 48.07519 | 37.73715 | 789 ft | 154 kts | 266° |
| 2026-04-17 19:40 | 48.07513 | 37.71821 | 1009 ft | 207 kts | 269° |
| 2026-04-17 19:40 | 48.07524 | 37.69438 | 1311 ft | 252 kts | 269° |
| 2026-04-17 19:41 | 48.07556 | 37.66580 | 1592 ft | 297 kts | 269° |
| 2026-04-17 19:41 | 48.07240 | 37.63425 | 2171 ft | 325 kts | 249° |
| 2026-04-17 19:41 | 48.06062 | 37.60454 | 3035 ft | 341 kts | 231° |
| 2026-04-17 19:41 | 48.04413 | 37.57854 | 4175 ft | 347 kts | 222° |
| 2026-04-17 19:42 | 48.02552 | 37.55510 | 5422 ft | 353 kts | 218° |
| 2026-04-17 19:42 | 48.00591 | 37.53263 | 6771 ft | 357 kts | 217° |
| 2026-04-17 19:42 | 47.98581 | 37.51007 | 7988 ft | 366 kts | 217° |
| 2026-04-17 19:42 | 47.96538 | 37.48679 | 9271 ft | 372 kts | 218° |
| 2026-04-17 19:43 | 47.94474 | 37.46270 | 10442 ft | 381 kts | 219° |
| 2026-04-17 19:43 | 47.92415 | 37.43814 | 11574 ft | 387 kts | 220° |
| 2026-04-17 19:43 | 47.90302 | 37.41259 | 12690 ft | 395 kts | 220° |
| 2026-04-17 19:43 | 47.88159 | 37.38650 | 13805 ft | 402 kts | 220° |
| 2026-04-17 19:44 | 47.85981 | 37.35993 | 14815 ft | 407 kts | 220° |
| 2026-04-17 19:44 | 47.83778 | 37.33307 | 15851 ft | 411 kts | 220° |
| 2026-04-17 19:44 | 47.81551 | 37.30597 | 16856 ft | 416 kts | 220° |
| 2026-04-17 19:44 | 47.79295 | 37.27859 | 17835 ft | 421 kts | 220° |
| 2026-04-17 19:45 | 47.77012 | 37.25093 | 18757 ft | 425 kts | 220° |
| 2026-04-17 19:45 | 47.74525 | 37.22690 | 19610 ft | 431 kts | 206° |
| 2026-04-17 19:45 | 47.71616 | 37.21506 | 20504 ft | 439 kts | 189° |
| 2026-04-17 19:45 | 47.68552 | 37.21658 | 21413 ft | 446 kts | 173° |
| 2026-04-17 19:46 | 47.65606 | 37.23152 | 22362 ft | 453 kts | 156° |
| 2026-04-17 19:46 | 47.63068 | 37.25836 | 23328 ft | 458 kts | 139° |
| 2026-04-17 19:46 | 47.61028 | 37.29463 | 24210 ft | 459 kts | 128° |
| 2026-04-17 19:46 | 47.59141 | 37.33267 | 25048 ft | 455 kts | 130° |
| 2026-04-17 19:47 | 47.57092 | 37.36818 | 25796 ft | 454 kts | 136° |
| 2026-04-17 19:47 | 47.54793 | 37.40009 | 26414 ft | 453 kts | 143° |
| 2026-04-17 19:47 | 47.52294 | 37.42844 | 27044 ft | 452 kts | 148° |
| 2026-04-17 19:47 | 47.49671 | 37.45421 | 27700 ft | 452 kts | 152° |
| 2026-04-17 19:48 | 47.46993 | 37.47838 | 28375 ft | 451 kts | 153° |
| 2026-04-17 19:48 | 47.44289 | 37.50187 | 29065 ft | 451 kts | 154° |
| 2026-04-17 19:48 | 47.41579 | 37.52519 | 29766 ft | 450 kts | 154° |
| 2026-04-17 19:48 | 47.38918 | 37.54819 | 30402 ft | 449 kts | 154° |
| 2026-04-17 19:49 | 47.36237 | 37.57157 | 31010 ft | 447 kts | 154° |
| 2026-04-17 19:49 | 47.33570 | 37.59499 | 31633 ft | 445 kts | 154° |
| 2026-04-17 19:49 | 47.30925 | 37.61834 | 32276 ft | 442 kts | 154° |
| 2026-04-17 19:49 | 47.28303 | 37.64155 | 32928 ft | 438 kts | 154° |
| 2026-04-17 19:50 | 47.25706 | 37.66456 | 33594 ft | 434 kts | 154° |
| 2026-04-17 19:50 | 47.23137 | 37.68729 | 34240 ft | 429 kts | 155° |
| 2026-04-17 19:50 | 47.20596 | 37.70975 | 34833 ft | 423 kts | 155° |
| 2026-04-17 19:50 | 47.18092 | 37.73186 | 35421 ft | 417 kts | 154° |
| 2026-04-17 19:51 | 47.15659 | 37.75330 | 36033 ft | 410 kts | 155° |
| 2026-04-17 19:51 | 47.13238 | 37.77461 | 36645 ft | 403 kts | 154° |
| 2026-04-17 19:51 | 47.10836 | 37.79569 | 37006 ft | 403 kts | 154° |
| 2026-04-17 19:52 | 47.05920 | 37.83855 | 37064 ft | 420 kts | 154° |
| 2026-04-17 19:52 | 47.00789 | 37.88323 | 37061 ft | 438 kts | 154° |
| 2026-04-17 19:53 | 46.95453 | 37.92975 | 37058 ft | 455 kts | 154° |
| 2026-04-17 19:53 | 46.89949 | 37.97769 | 37063 ft | 472 kts | 154° |
| 2026-04-17 19:54 | 46.84367 | 38.02621 | 37064 ft | 487 kts | 154° |
| 2026-04-17 19:54 | 46.81494 | 38.05121 | 37862 ft | 475 kts | 153° |
| 2026-04-17 19:54 | 46.78628 | 38.07616 | 37656 ft | 482 kts | 154° |
| 2026-04-17 19:54 | 46.75787 | 38.10091 | 37322 ft | 478 kts | 153° |
| 2026-04-17 19:55 | 46.72905 | 38.12602 | 36462 ft | 482 kts | 153° |
| 2026-04-17 19:55 | 46.67206 | 38.17577 | 36711 ft | 475 kts | 154° |
| 2026-04-17 19:55 | 46.64376 | 38.20010 | 37316 ft | 469 kts | 154° |
| 2026-04-17 19:56 | 46.61606 | 38.22382 | 37701 ft | 469 kts | 154° |
| 2026-04-17 19:56 | 46.58783 | 38.24791 | 37893 ft | 472 kts | 154° |
| 2026-04-17 19:56 | 46.55951 | 38.27209 | 37976 ft | 471 kts | 154° |
| 2026-04-17 19:56 | 46.53126 | 38.29621 | 37708 ft | 472 kts | 154° |
| 2026-04-17 19:57 | 46.50294 | 38.32039 | 37223 ft | 474 kts | 154° |
| 2026-04-17 19:57 | 46.47441 | 38.34472 | 37059 ft | 477 kts | 154° |
| 2026-04-17 19:57 | 46.44579 | 38.36913 | 37051 ft | 478 kts | 154° |
| 2026-04-17 19:58 | 46.38848 | 38.41795 | 37046 ft | 477 kts | 154° |
| 2026-04-17 19:58 | 46.33125 | 38.46658 | 37043 ft | 476 kts | 154° |
| 2026-04-17 19:59 | 46.27462 | 38.51458 | 37045 ft | 475 kts | 154° |
| 2026-04-17 19:59 | 46.21762 | 38.56275 | 37046 ft | 475 kts | 154° |
| 2026-04-17 20:00 | 46.16061 | 38.61081 | 37045 ft | 474 kts | 154° |
| 2026-04-17 20:00 | 46.11319 | 38.65070 | 37039 ft | 475 kts | 154° |
| 2026-04-17 20:01 | 46.10464 | 38.65788 | 37042 ft | 475 kts | 154° |
| 2026-04-17 20:02 | 46.09169 | 38.66876 | 37043 ft | 476 kts | 154° |
| 2026-04-17 20:02 | 46.03444 | 38.71676 | 37043 ft | 476 kts | 154° |
| 2026-04-17 20:03 | 45.97711 | 38.76473 | 37030 ft | 476 kts | 154° |
| 2026-04-17 20:03 | 45.92005 | 38.81238 | 37037 ft | 473 kts | 154° |
| 2026-04-17 20:04 | 45.86341 | 38.85953 | 37039 ft | 474 kts | 154° |
| 2026-04-17 20:04 | 45.80627 | 38.90698 | 37040 ft | 474 kts | 154° |
| 2026-04-17 20:05 | 45.74915 | 38.95431 | 37039 ft | 474 kts | 154° |
| 2026-04-17 20:05 | 45.69201 | 39.00155 | 37036 ft | 475 kts | 154° |
| 2026-04-17 20:06 | 45.63464 | 39.04885 | 37040 ft | 476 kts | 154° |
| 2026-04-17 20:06 | 45.57766 | 39.09574 | 37033 ft | 475 kts | 154° |
| 2026-04-17 20:07 | 45.52045 | 39.14271 | 37039 ft | 474 kts | 154° |
| 2026-04-17 20:07 | 45.46321 | 39.18957 | 37040 ft | 475 kts | 154° |
| 2026-04-17 20:08 | 45.40590 | 39.23637 | 37039 ft | 475 kts | 154° |
| 2026-04-17 20:08 | 45.34852 | 39.28314 | 37040 ft | 475 kts | 154° |
| 2026-04-17 20:09 | 45.29154 | 39.32947 | 37039 ft | 475 kts | 154° |
| 2026-04-17 20:09 | 45.23403 | 39.37611 | 37023 ft | 477 kts | 154° |
| 2026-04-17 20:10 | 45.17651 | 39.42267 | 37036 ft | 475 kts | 154° |
| 2026-04-17 20:10 | 45.11920 | 39.46895 | 37033 ft | 474 kts | 154° |
| 2026-04-17 20:11 | 45.06219 | 39.51485 | 37036 ft | 475 kts | 154° |
| 2026-04-17 20:11 | 45.00470 | 39.56105 | 37030 ft | 475 kts | 154° |
| 2026-04-17 20:12 | 44.94715 | 39.60719 | 37031 ft | 475 kts | 154° |
| 2026-04-17 20:12 | 44.88962 | 39.65321 | 37029 ft | 476 kts | 154° |
| 2026-04-17 20:13 | 44.83193 | 39.69925 | 37025 ft | 476 kts | 154° |
| 2026-04-17 20:13 | 44.77433 | 39.74512 | 37026 ft | 475 kts | 154° |
| 2026-04-17 20:14 | 44.71720 | 39.79050 | 37021 ft | 475 kts | 154° |
| 2026-04-17 20:14 | 44.65962 | 39.83612 | 37019 ft | 476 kts | 154° |
| 2026-04-17 20:15 | 44.60190 | 39.88174 | 37016 ft | 476 kts | 154° |
| 2026-04-17 20:15 | 44.54411 | 39.92733 | 37021 ft | 476 kts | 154° |
| 2026-04-17 20:16 | 44.48636 | 39.97279 | 37006 ft | 477 kts | 154° |
| 2026-04-17 20:16 | 44.42892 | 40.01790 | 37017 ft | 476 kts | 154° |
| 2026-04-17 20:17 | 44.37119 | 40.06314 | 37014 ft | 476 kts | 154° |
| 2026-04-17 20:17 | 44.31345 | 40.10827 | 37020 ft | 476 kts | 154° |
| 2026-04-17 20:18 | 44.25568 | 40.15332 | 37015 ft | 476 kts | 154° |
| 2026-04-17 20:18 | 44.24591 | 40.16093 | 37013 ft | 476 kts | 154° |
| 2026-04-17 20:19 | 44.19885 | 40.19754 | 37009 ft | 476 kts | 154° |
| 2026-04-17 20:19 | 44.14108 | 40.24240 | 37018 ft | 476 kts | 154° |
| 2026-04-17 20:20 | 44.08333 | 40.28714 | 37006 ft | 475 kts | 154° |
| 2026-04-17 20:20 | 44.02562 | 40.33174 | 37008 ft | 475 kts | 154° |
| 2026-04-17 20:21 | 43.96786 | 40.37627 | 37003 ft | 475 kts | 154° |
| 2026-04-17 20:21 | 43.91054 | 40.42038 | 36999 ft | 474 kts | 154° |
| 2026-04-17 20:22 | 43.85266 | 40.46481 | 37009 ft | 476 kts | 154° |
| 2026-04-17 20:22 | 43.79465 | 40.50928 | 36998 ft | 477 kts | 154° |
| 2026-04-17 20:23 | 43.73667 | 40.55360 | 37001 ft | 475 kts | 154° |
| 2026-04-17 20:23 | 43.67890 | 40.59764 | 36990 ft | 474 kts | 154° |
| 2026-04-17 20:24 | 43.62100 | 40.64166 | 36998 ft | 475 kts | 154° |
| 2026-04-17 20:24 | 43.56348 | 40.68532 | 36992 ft | 476 kts | 154° |
| 2026-04-17 20:25 | 43.50544 | 40.72926 | 36981 ft | 476 kts | 154° |
| 2026-04-17 20:25 | 43.44726 | 40.77325 | 36986 ft | 477 kts | 154° |
| 2026-04-17 20:26 | 43.38913 | 40.81712 | 36968 ft | 476 kts | 154° |
| 2026-04-17 20:26 | 43.33110 | 40.86081 | 36971 ft | 475 kts | 154° |
| 2026-04-17 20:27 | 43.27309 | 40.90437 | 36862 ft | 475 kts | 154° |
| 2026-04-17 20:27 | 43.24413 | 40.92608 | 36427 ft | 475 kts | 154° |
| 2026-04-17 20:27 | 43.21547 | 40.94753 | 35951 ft | 477 kts | 154° |
| 2026-04-17 20:27 | 43.18632 | 40.96933 | 35475 ft | 479 kts | 154° |
| 2026-04-17 20:28 | 43.15698 | 40.99124 | 35010 ft | 481 kts | 155° |
| 2026-04-17 20:28 | 43.12755 | 41.01321 | 34534 ft | 483 kts | 155° |
| 2026-04-17 20:28 | 43.09797 | 41.03525 | 34073 ft | 486 kts | 155° |
| 2026-04-17 20:28 | 43.06822 | 41.05740 | 33580 ft | 488 kts | 155° |
| 2026-04-17 20:29 | 43.03836 | 41.07960 | 33069 ft | 490 kts | 155° |
| 2026-04-17 20:29 | 43.00837 | 41.10189 | 32568 ft | 491 kts | 154° |
| 2026-04-17 20:29 | 42.97869 | 41.12393 | 32078 ft | 493 kts | 154° |
| 2026-04-17 20:29 | 42.94852 | 41.14630 | 31576 ft | 494 kts | 154° |
| 2026-04-17 20:30 | 42.88783 | 41.19122 | 30408 ft | 499 kts | 154° |
| 2026-04-17 20:30 | 42.85728 | 41.21379 | 29785 ft | 500 kts | 154° |
| 2026-04-17 20:30 | 42.82672 | 41.23636 | 29111 ft | 498 kts | 154° |
| 2026-04-17 20:31 | 42.79644 | 41.25870 | 28451 ft | 493 kts | 154° |
| 2026-04-17 20:31 | 42.76643 | 41.28084 | 27805 ft | 488 kts | 154° |
| 2026-04-17 20:31 | 42.73673 | 41.30270 | 27185 ft | 483 kts | 154° |
| 2026-04-17 20:31 | 42.70727 | 41.32436 | 26549 ft | 479 kts | 154° |
| 2026-04-17 20:32 | 42.67847 | 41.34551 | 25956 ft | 474 kts | 154° |
| 2026-04-17 20:32 | 42.64956 | 41.36670 | 25363 ft | 470 kts | 154° |
| 2026-04-17 20:32 | 42.62092 | 41.38768 | 24787 ft | 466 kts | 154° |
| 2026-04-17 20:32 | 42.59247 | 41.40849 | 24223 ft | 470 kts | 154° |
| 2026-04-17 20:33 | 42.56285 | 41.43005 | 23679 ft | 493 kts | 154° |
| 2026-04-17 20:33 | 42.53236 | 41.45224 | 23072 ft | 500 kts | 154° |
| 2026-04-17 20:33 | 42.50177 | 41.47454 | 22413 ft | 498 kts | 154° |
| 2026-04-17 20:33 | 42.47142 | 41.49669 | 21780 ft | 493 kts | 154° |
| 2026-04-17 20:34 | 42.44140 | 41.51858 | 21085 ft | 486 kts | 154° |
| 2026-04-17 20:34 | 42.41206 | 41.53998 | 20053 ft | 471 kts | 154° |
| 2026-04-17 20:34 | 42.38359 | 41.56072 | 18731 ft | 460 kts | 154° |
| 2026-04-17 20:34 | 42.35605 | 41.58072 | 17223 ft | 452 kts | 154° |
| 2026-04-17 20:35 | 42.32863 | 41.60060 | 15681 ft | 443 kts | 154° |
| 2026-04-17 20:35 | 42.30186 | 41.62024 | 14338 ft | 432 kts | 152° |
| 2026-04-17 20:35 | 42.27692 | 41.64134 | 13497 ft | 412 kts | 147° |
| 2026-04-17 20:35 | 42.25478 | 41.66392 | 13017 ft | 385 kts | 142° |
| 2026-04-17 20:36 | 42.23588 | 41.68724 | 12902 ft | 352 kts | 136° |
| 2026-04-17 20:36 | 42.22011 | 41.71058 | 12916 ft | 321 kts | 131° |
| 2026-04-17 20:36 | 42.20687 | 41.73378 | 12574 ft | 306 kts | 127° |
| 2026-04-17 20:36 | 42.19541 | 41.75771 | 11904 ft | 304 kts | 121° |
| 2026-04-17 20:37 | 42.18550 | 41.78293 | 11121 ft | 306 kts | 116° |
| 2026-04-17 20:37 | 42.17713 | 41.80960 | 10219 ft | 311 kts | 111° |
| 2026-04-17 20:37 | 42.17045 | 41.83740 | 9325 ft | 313 kts | 106° |
| 2026-04-17 20:37 | 42.16553 | 41.86598 | 8320 ft | 314 kts | 101° |
| 2026-04-17 20:38 | 42.16235 | 41.89508 | 7034 ft | 323 kts | 97° |
| 2026-04-17 20:38 | 42.16097 | 41.92580 | 5575 ft | 333 kts | 92° |
| 2026-04-17 20:38 | 42.16092 | 41.95699 | 4437 ft | 329 kts | 90° |
| 2026-04-17 20:38 | 42.16109 | 41.98696 | 3787 ft | 309 kts | 89° |
| 2026-04-17 20:39 | 42.16122 | 42.01500 | 3519 ft | 289 kts | 89° |
| 2026-04-17 20:39 | 42.16125 | 42.02402 | 3489 ft | 281 kts | 90° |
| 2026-04-17 20:39 | 42.16128 | 42.03119 | 3479 ft | 275 kts | 90° |
| 2026-04-17 20:39 | 42.16134 | 42.05583 | 3465 ft | 252 kts | 90° |
| 2026-04-17 20:40 | 42.16134 | 42.07843 | 3468 ft | 231 kts | 91° |
| 2026-04-17 20:40 | 42.16035 | 42.09926 | 3470 ft | 215 kts | 94° |
| 2026-04-17 20:40 | 42.15891 | 42.11832 | 3470 ft | 200 kts | 95° |
| 2026-04-17 20:40 | 42.15746 | 42.13628 | 3464 ft | 185 kts | 95° |
| 2026-04-17 20:41 | 42.15622 | 42.15276 | 3457 ft | 170 kts | 95° |
| 2026-04-17 20:41 | 42.15477 | 42.16803 | 3487 ft | 162 kts | 97° |
| 2026-04-17 20:41 | 42.15314 | 42.18344 | 3524 ft | 170 kts | 97° |
| 2026-04-17 20:41 | 42.15138 | 42.19935 | 3497 ft | 172 kts | 97° |
| 2026-04-17 20:42 | 42.14967 | 42.21528 | 3487 ft | 172 kts | 97° |
| 2026-04-17 20:42 | 42.14801 | 42.23126 | 3487 ft | 171 kts | 97° |
| 2026-04-17 20:42 | 42.14775 | 42.24726 | 3489 ft | 172 kts | 84° |
| 2026-04-17 20:42 | 42.14978 | 42.26314 | 3496 ft | 171 kts | 81° |
| 2026-04-17 20:43 | 42.15215 | 42.27848 | 3484 ft | 164 kts | 80° |
| 2026-04-17 20:43 | 42.15420 | 42.29330 | 3238 ft | 161 kts | 82° |
| 2026-04-17 20:43 | 42.15553 | 42.30813 | 2982 ft | 158 kts | 84° |
| 2026-04-17 20:43 | 42.15688 | 42.32281 | 2730 ft | 157 kts | 82° |
| 2026-04-17 20:44 | 42.15876 | 42.33708 | 2509 ft | 148 kts | 82° |
| 2026-04-17 20:44 | 42.16047 | 42.34989 | 2301 ft | 130 kts | 83° |
| 2026-04-17 20:44 | 42.16190 | 42.36148 | 2074 ft | 122 kts | 82° |
| 2026-04-17 20:44 | 42.16360 | 42.37262 | 1866 ft | 120 kts | 82° |
| 2026-04-17 20:45 | 42.16523 | 42.38362 | 1662 ft | 119 kts | 85° |
| 2026-04-17 20:45 | 42.16652 | 42.39459 | 1461 ft | 118 kts | 84° |
| 2026-04-17 20:45 | 42.16757 | 42.40548 | 1261 ft | 117 kts | 86° |
| 2026-04-17 20:45 | 42.16825 | 42.41635 | 1064 ft | 120 kts | 85° |
| 2026-04-17 20:46 | 42.16977 | 42.42759 | 836 ft | 123 kts | 80° |
| 2026-04-17 20:46 | 42.17136 | 42.43894 | 643 ft | 124 kts | 81° |
| 2026-04-17 20:46 | 42.17282 | 42.45046 | 502 ft | 125 kts | 80° |
| 2026-04-17 20:46 | 42.17426 | 42.46189 | 297 ft | 123 kts | 79° |
| 2026-04-17 20:47 | 42.17564 | 42.47322 | 149 ft | 121 kts | 79° |
| 2026-04-17 20:47 | 42.17683 | 42.48275 | 146 ft | 68 kts | 80° |
| 2026-04-17 20:47 | 42.17731 | 42.48651 | 146 ft | 34 kts | 80° |
| 2026-04-17 20:47 | 42.17770 | 42.48959 | 143 ft | 33 kts | 80° |
| 2026-04-17 20:48 | 42.17810 | 42.49271 | 141 ft | 34 kts | 80° |
| 2026-04-17 20:48 | 42.17837 | 42.49481 | 142 ft | 34 kts | 80° |
| 2026-04-17 20:48 | 42.17855 | 42.49735 | 143 ft | 4 kts | 45° |
| 2026-04-17 20:48 | 42.17867 | 42.49727 | 143 ft | 1 kts | 312° |
| 2026-04-17 20:49 | 42.17866 | 42.49721 | 143 ft | 1 kts | 257° |
| 2026-04-17 20:49 | 42.17862 | 42.49701 | 143 ft | 6 kts | 257° |
| 2026-04-17 20:49 | 42.17847 | 42.49581 | 142 ft | 14 kts | 261° |
| 2026-04-17 20:49 | 42.17834 | 42.49483 | 142 ft | 18 kts | 260° |
| 2026-04-17 20:50 | 42.17807 | 42.49286 | 141 ft | 25 kts | 259° |
| 2026-04-17 20:50 | 42.17774 | 42.49038 | 143 ft | 29 kts | 261° |
| 2026-04-17 20:50 | 42.17759 | 42.48903 | 143 ft | 32 kts | 261° |
| 2026-04-17 20:50 | 42.17707 | 42.48482 | 146 ft | 37 kts | 260° |
| 2026-04-17 20:51 | 42.17679 | 42.48243 | 146 ft | 39 kts | 260° |
| 2026-04-17 20:51 | 42.17629 | 42.47865 | 143 ft | 43 kts | 259° |
| 2026-04-17 20:51 | 42.17609 | 42.47513 | 142 ft | 16 kts | 305° |
| 2026-04-17 20:51 | 42.17676 | 42.47459 | 143 ft | 0 kts | 342° |
| 2026-04-17 20:52 | 42.17686 | 42.47454 | 143 ft | 4 kts | 342° |
| 2026-04-17 20:52 | 42.17725 | 42.47429 | 143 ft | 9 kts | 333° |
| 2026-04-17 20:52 | 42.17797 | 42.47391 | 143 ft | 14 kts | 338° |
| 2026-04-17 20:53 | 42.17894 | 42.47321 | 143 ft | 17 kts | 310° |
| 2026-04-17 20:53 | 42.17906 | 42.47150 | 143 ft | 21 kts | 263° |
| 2026-04-17 20:53 | 42.17901 | 42.46985 | 143 ft | 12 kts | 306° |
| 2026-04-17 20:53 | 42.17978 | 42.46929 | 143 ft | 15 kts | 333° |
| 2026-04-17 20:54 | 42.18044 | 42.46878 | 143 ft | 6 kts | 313° |
| 2026-04-17 20:54 | 42.18039 | 42.46805 | 143 ft | 11 kts | 249° |
| 2026-04-17 20:54 | 42.18010 | 42.46687 | 143 ft | 16 kts | 251° |
| 2026-04-17 20:54 | 42.18014 | 42.46644 | 143 ft | 0 kts | 312° |
| 2026-04-17 20:55 | 42.18015 | 42.46643 | 143 ft | 1 kts | 313° |
| 2026-04-17 20:55 | 42.18031 | 42.46631 | 143 ft | 5 kts | 337° |
| 2026-04-17 20:55 | 42.18082 | 42.46607 | 143 ft | 11 kts | 340° |
| 2026-04-17 20:55 | 42.18142 | 42.46629 | 143 ft | 10 kts | 69° |
| 2026-04-17 20:56 | 42.18147 | 42.46646 | 143 ft | 0 kts | 68° |